sensor_id;sensor_type;location;lat;lon;timestamp;temperature;humidity
31809;DHT22;18379;48.208;-1.518;2022-12-08T00:05:38;3.80;99.90
31809;DHT22;18379;48.208;-1.518;2022-12-08T00:11:02;3.80;99.90
31809;DHT22;18379;48.208;-1.518;2022-12-08T00:16:02;3.80;99.90
31809;DHT22;18379;48.208;-1.518;2022-12-08T00:21:03;3.80;99.90
31809;DHT22;18379;48.208;-1.518;2022-12-08T00:26:05;3.70;99.90
31809;DHT22;18379;48.208;-1.518;2022-12-08T00:31:07;3.70;99.90
31809;DHT22;18379;48.208;-1.518;2022-12-08T00:36:11;3.70;99.90
31809;DHT22;18379;48.208;-1.518;2022-12-08T00:41:15;3.70;99.90
31809;DHT22;18379;48.208;-1.518;2022-12-08T00:46:15;3.70;99.90
31809;DHT22;18379;48.208;-1.518;2022-12-08T00:51:16;3.70;99.90
31809;DHT22;18379;48.208;-1.518;2022-12-08T00:56:17;3.70;99.90
31809;DHT22;18379;48.208;-1.518;2022-12-08T01:01:18;3.60;99.90
31809;DHT22;18379;48.208;-1.518;2022-12-08T01:06:19;3.60;99.90
31809;DHT22;18379;48.208;-1.518;2022-12-08T01:11:19;3.60;99.90
31809;DHT22;18379;48.208;-1.518;2022-12-08T01:16:29;3.60;99.90
31809;DHT22;18379;48.208;-1.518;2022-12-08T01:21:30;3.70;99.90
31809;DHT22;18379;48.208;-1.518;2022-12-08T01:26:32;3.70;99.90
31809;DHT22;18379;48.208;-1.518;2022-12-08T01:31:33;3.70;99.90
31809;DHT22;18379;48.208;-1.518;2022-12-08T01:36:34;3.70;99.90
31809;DHT22;18379;48.208;-1.518;2022-12-08T01:41:38;3.70;99.90
31809;DHT22;18379;48.208;-1.518;2022-12-08T01:46:42;3.70;99.90
31809;DHT22;18379;48.208;-1.518;2022-12-08T01:57:39;3.60;99.90
31809;DHT22;18379;48.208;-1.518;2022-12-08T02:02:44;3.50;99.90
31809;DHT22;18379;48.208;-1.518;2022-12-08T02:07:46;3.50;99.90
31809;DHT22;18379;48.208;-1.518;2022-12-08T02:12:50;3.50;99.90
31809;DHT22;18379;48.208;-1.518;2022-12-08T02:18:23;3.40;99.90
31809;DHT22;18379;48.208;-1.518;2022-12-08T02:23:42;3.40;99.90
31809;DHT22;18379;48.208;-1.518;2022-12-08T02:34:09;3.30;99.90
31809;DHT22;18379;48.208;-1.518;2022-12-08T02:39:32;3.20;99.90
31809;DHT22;18379;48.208;-1.518;2022-12-08T02:44:40;3.20;99.90
31809;DHT22;18379;48.208;-1.518;2022-12-08T02:49:42;3.40;99.90
31809;DHT22;18379;48.208;-1.518;2022-12-08T02:54:50;3.40;99.90
31809;DHT22;18379;48.208;-1.518;2022-12-08T03:05:28;3.30;99.90
31809;DHT22;18379;48.208;-1.518;2022-12-08T03:16:00;3.40;99.90
31809;DHT22;18379;48.208;-1.518;2022-12-08T03:21:05;3.40;99.90
31809;DHT22;18379;48.208;-1.518;2022-12-08T03:31:53;3.40;99.90
31809;DHT22;18379;48.208;-1.518;2022-12-08T03:36:54;3.50;99.90
31809;DHT22;18379;48.208;-1.518;2022-12-08T03:41:55;3.50;99.90
31809;DHT22;18379;48.208;-1.518;2022-12-08T03:46:56;3.50;99.90
31809;DHT22;18379;48.208;-1.518;2022-12-08T03:51:57;3.50;99.90
31809;DHT22;18379;48.208;-1.518;2022-12-08T03:56:58;3.60;99.90
31809;DHT22;18379;48.208;-1.518;2022-12-08T04:01:58;3.60;99.90
31809;DHT22;18379;48.208;-1.518;2022-12-08T04:06:59;3.60;99.90
31809;DHT22;18379;48.208;-1.518;2022-12-08T04:12:00;3.50;99.90
31809;DHT22;18379;48.208;-1.518;2022-12-08T04:17:01;3.50;99.90
31809;DHT22;18379;48.208;-1.518;2022-12-08T04:22:01;3.40;99.90
31809;DHT22;18379;48.208;-1.518;2022-12-08T04:27:02;3.30;99.90
31809;DHT22;18379;48.208;-1.518;2022-12-08T04:32:03;3.30;99.90
31809;DHT22;18379;48.208;-1.518;2022-12-08T04:37:04;3.20;99.90
31809;DHT22;18379;48.208;-1.518;2022-12-08T04:42:05;3.20;99.90
31809;DHT22;18379;48.208;-1.518;2022-12-08T04:47:06;3.10;99.90
31809;DHT22;18379;48.208;-1.518;2022-12-08T04:52:07;3.10;99.90
31809;DHT22;18379;48.208;-1.518;2022-12-08T04:57:07;3.10;99.90
31809;DHT22;18379;48.208;-1.518;2022-12-08T05:02:08;3.10;99.90
31809;DHT22;18379;48.208;-1.518;2022-12-08T05:07:09;3.10;99.90
31809;DHT22;18379;48.208;-1.518;2022-12-08T05:12:10;3.10;99.90
31809;DHT22;18379;48.208;-1.518;2022-12-08T05:17:11;3.20;99.90
31809;DHT22;18379;48.208;-1.518;2022-12-08T05:22:12;3.30;99.90
31809;DHT22;18379;48.208;-1.518;2022-12-08T05:27:12;3.30;99.90
31809;DHT22;18379;48.208;-1.518;2022-12-08T05:32:13;3.30;99.90
31809;DHT22;18379;48.208;-1.518;2022-12-08T05:37:14;3.20;99.90
31809;DHT22;18379;48.208;-1.518;2022-12-08T05:42:16;3.20;99.90
31809;DHT22;18379;48.208;-1.518;2022-12-08T05:47:16;3.10;99.90
31809;DHT22;18379;48.208;-1.518;2022-12-08T05:52:17;3.10;99.90
31809;DHT22;18379;48.208;-1.518;2022-12-08T05:57:18;3.10;99.90
31809;DHT22;18379;48.208;-1.518;2022-12-08T06:02:19;3.10;99.90
31809;DHT22;18379;48.208;-1.518;2022-12-08T06:07:19;3.10;99.90
31809;DHT22;18379;48.208;-1.518;2022-12-08T06:12:20;3.10;99.90
31809;DHT22;18379;48.208;-1.518;2022-12-08T06:17:21;3.00;99.90
31809;DHT22;18379;48.208;-1.518;2022-12-08T06:22:22;3.00;99.90
31809;DHT22;18379;48.208;-1.518;2022-12-08T06:27:23;2.90;99.90
31809;DHT22;18379;48.208;-1.518;2022-12-08T06:32:24;2.90;99.90
31809;DHT22;18379;48.208;-1.518;2022-12-08T06:37:25;2.90;99.90
31809;DHT22;18379;48.208;-1.518;2022-12-08T06:42:26;3.00;99.90
31809;DHT22;18379;48.208;-1.518;2022-12-08T06:47:46;2.90;99.90
31809;DHT22;18379;48.208;-1.518;2022-12-08T06:52:47;2.90;99.90
31809;DHT22;18379;48.208;-1.518;2022-12-08T06:57:47;2.80;99.90
31809;DHT22;18379;48.208;-1.518;2022-12-08T07:02:48;2.80;99.90
31809;DHT22;18379;48.208;-1.518;2022-12-08T07:07:49;2.60;99.90
31809;DHT22;18379;48.208;-1.518;2022-12-08T07:12:50;2.60;99.90
31809;DHT22;18379;48.208;-1.518;2022-12-08T07:17:51;2.50;99.90
31809;DHT22;18379;48.208;-1.518;2022-12-08T07:22:52;2.50;99.90
31809;DHT22;18379;48.208;-1.518;2022-12-08T07:27:53;2.60;99.90
31809;DHT22;18379;48.208;-1.518;2022-12-08T07:32:54;2.60;99.90
31809;DHT22;18379;48.208;-1.518;2022-12-08T07:37:55;2.70;99.90
31809;DHT22;18379;48.208;-1.518;2022-12-08T07:42:57;2.70;99.90
31809;DHT22;18379;48.208;-1.518;2022-12-08T07:47:58;2.70;99.90
31809;DHT22;18379;48.208;-1.518;2022-12-08T07:52:59;2.70;99.90
31809;DHT22;18379;48.208;-1.518;2022-12-08T07:57:59;2.60;99.90
31809;DHT22;18379;48.208;-1.518;2022-12-08T08:03:00;2.60;99.90
31809;DHT22;18379;48.208;-1.518;2022-12-08T08:08:02;2.60;99.90
31809;DHT22;18379;48.208;-1.518;2022-12-08T08:13:03;2.70;99.90
31809;DHT22;18379;48.208;-1.518;2022-12-08T08:18:04;2.70;99.90
31809;DHT22;18379;48.208;-1.518;2022-12-08T08:23:05;2.80;99.90
31809;DHT22;18379;48.208;-1.518;2022-12-08T08:28:06;2.90;99.90
31809;DHT22;18379;48.208;-1.518;2022-12-08T08:33:06;2.90;99.90
31809;DHT22;18379;48.208;-1.518;2022-12-08T08:38:07;2.90;99.90
31809;DHT22;18379;48.208;-1.518;2022-12-08T08:43:08;2.90;99.90
31809;DHT22;18379;48.208;-1.518;2022-12-08T08:48:09;3.00;99.90
31809;DHT22;18379;48.208;-1.518;2022-12-08T08:53:10;3.00;99.90
31809;DHT22;18379;48.208;-1.518;2022-12-08T08:58:11;3.00;99.90
31809;DHT22;18379;48.208;-1.518;2022-12-08T09:03:12;3.10;99.90
31809;DHT22;18379;48.208;-1.518;2022-12-08T09:08:12;3.10;99.90
31809;DHT22;18379;48.208;-1.518;2022-12-08T09:13:13;3.20;99.90
31809;DHT22;18379;48.208;-1.518;2022-12-08T09:18:14;3.20;99.90
31809;DHT22;18379;48.208;-1.518;2022-12-08T09:23:15;3.30;99.90
31809;DHT22;18379;48.208;-1.518;2022-12-08T09:28:16;3.20;99.90
31809;DHT22;18379;48.208;-1.518;2022-12-08T09:33:17;3.20;99.90
31809;DHT22;18379;48.208;-1.518;2022-12-08T09:38:17;3.30;99.90
31809;DHT22;18379;48.208;-1.518;2022-12-08T09:48:58;3.40;99.90
31809;DHT22;18379;48.208;-1.518;2022-12-08T09:54:06;3.40;99.90
31809;DHT22;18379;48.208;-1.518;2022-12-08T10:04:30;3.50;99.90
31809;DHT22;18379;48.208;-1.518;2022-12-08T10:20:16;3.50;99.90
31809;DHT22;18379;48.208;-1.518;2022-12-08T10:25:34;3.50;99.90
31809;DHT22;18379;48.208;-1.518;2022-12-08T10:30:36;3.60;99.90
31809;DHT22;18379;48.208;-1.518;2022-12-08T10:35:48;3.60;99.90
31809;DHT22;18379;48.208;-1.518;2022-12-08T10:40:51;3.60;99.90
31809;DHT22;18379;48.208;-1.518;2022-12-08T10:45:54;3.80;99.90
31809;DHT22;18379;48.208;-1.518;2022-12-08T10:51:21;3.70;99.90
31809;DHT22;18379;48.208;-1.518;2022-12-08T10:56:28;3.70;99.90
31809;DHT22;18379;48.208;-1.518;2022-12-08T11:01:35;3.80;99.90
31809;DHT22;18379;48.208;-1.518;2022-12-08T11:06:38;3.90;99.90
31809;DHT22;18379;48.208;-1.518;2022-12-08T11:12:13;3.90;99.90
31809;DHT22;18379;48.208;-1.518;2022-12-08T11:27:32;4.00;99.90
31809;DHT22;18379;48.208;-1.518;2022-12-08T11:32:33;4.00;99.90
31809;DHT22;18379;48.208;-1.518;2022-12-08T11:37:38;4.10;99.90
31809;DHT22;18379;48.208;-1.518;2022-12-08T11:53:29;4.10;99.90
31809;DHT22;18379;48.208;-1.518;2022-12-08T11:58:41;4.10;99.90
31809;DHT22;18379;48.208;-1.518;2022-12-08T12:03:48;4.10;99.90
31809;DHT22;18379;48.208;-1.518;2022-12-08T12:09:17;4.20;99.90
31809;DHT22;18379;48.208;-1.518;2022-12-08T12:19:53;4.30;99.90
31809;DHT22;18379;48.208;-1.518;2022-12-08T12:24:55;4.40;99.90
31809;DHT22;18379;48.208;-1.518;2022-12-08T12:29:59;4.30;99.90
31809;DHT22;18379;48.208;-1.518;2022-12-08T12:35:00;4.30;99.90
31809;DHT22;18379;48.208;-1.518;2022-12-08T12:40:05;4.20;99.90
31809;DHT22;18379;48.208;-1.518;2022-12-08T12:45:30;4.20;99.90
31809;DHT22;18379;48.208;-1.518;2022-12-08T12:56:01;4.40;99.90
31809;DHT22;18379;48.208;-1.518;2022-12-08T13:01:34;4.40;99.90
31809;DHT22;18379;48.208;-1.518;2022-12-08T13:11:49;4.50;99.90
31809;DHT22;18379;48.208;-1.518;2022-12-08T13:16:54;4.40;99.90
31809;DHT22;18379;48.208;-1.518;2022-12-08T13:21:55;4.40;99.90
31809;DHT22;18379;48.208;-1.518;2022-12-08T13:47:36;4.60;99.90
31809;DHT22;18379;48.208;-1.518;2022-12-08T13:52:51;4.70;99.90
31809;DHT22;18379;48.208;-1.518;2022-12-08T13:57:55;4.90;99.90
31809;DHT22;18379;48.208;-1.518;2022-12-08T14:02:59;5.20;99.90
31809;DHT22;18379;48.208;-1.518;2022-12-08T14:08:01;5.50;99.90
31809;DHT22;18379;48.208;-1.518;2022-12-08T14:13:04;5.70;99.90
31809;DHT22;18379;48.208;-1.518;2022-12-08T14:18:22;5.60;99.90
31809;DHT22;18379;48.208;-1.518;2022-12-08T14:23:23;5.40;99.90
31809;DHT22;18379;48.208;-1.518;2022-12-08T14:28:24;5.40;99.90
31809;DHT22;18379;48.208;-1.518;2022-12-08T14:33:25;5.40;99.90
31809;DHT22;18379;48.208;-1.518;2022-12-08T14:38:26;5.70;99.90
31809;DHT22;18379;48.208;-1.518;2022-12-08T14:43:28;5.80;99.90
31809;DHT22;18379;48.208;-1.518;2022-12-08T14:59:08;5.40;99.90
31809;DHT22;18379;48.208;-1.518;2022-12-08T15:09:28;5.20;99.90
31809;DHT22;18379;48.208;-1.518;2022-12-08T15:14:32;5.20;99.90
31809;DHT22;18379;48.208;-1.518;2022-12-08T15:19:33;5.00;99.90
31809;DHT22;18379;48.208;-1.518;2022-12-08T15:24:34;4.80;99.90
31809;DHT22;18379;48.208;-1.518;2022-12-08T15:29:35;4.70;99.90
31809;DHT22;18379;48.208;-1.518;2022-12-08T15:34:37;4.70;99.90
31809;DHT22;18379;48.208;-1.518;2022-12-08T15:39:38;4.70;99.90
31809;DHT22;18379;48.208;-1.518;2022-12-08T15:44:39;4.80;99.90
31809;DHT22;18379;48.208;-1.518;2022-12-08T15:49:40;4.80;99.90
31809;DHT22;18379;48.208;-1.518;2022-12-08T15:54:41;4.80;99.90
31809;DHT22;18379;48.208;-1.518;2022-12-08T15:59:42;4.90;99.90
31809;DHT22;18379;48.208;-1.518;2022-12-08T16:04:43;4.90;99.90
31809;DHT22;18379;48.208;-1.518;2022-12-08T16:09:44;4.90;99.90
31809;DHT22;18379;48.208;-1.518;2022-12-08T16:14:44;4.90;99.90
31809;DHT22;18379;48.208;-1.518;2022-12-08T16:19:45;4.90;99.90
31809;DHT22;18379;48.208;-1.518;2022-12-08T16:24:46;4.90;99.90
31809;DHT22;18379;48.208;-1.518;2022-12-08T16:29:47;4.90;99.90
31809;DHT22;18379;48.208;-1.518;2022-12-08T16:34:48;4.90;99.90
31809;DHT22;18379;48.208;-1.518;2022-12-08T16:39:51;4.90;99.90
31809;DHT22;18379;48.208;-1.518;2022-12-08T16:44:52;5.00;99.90
31809;DHT22;18379;48.208;-1.518;2022-12-08T16:49:53;5.00;99.90
31809;DHT22;18379;48.208;-1.518;2022-12-08T16:54:54;5.00;99.90
31809;DHT22;18379;48.208;-1.518;2022-12-08T16:59:55;4.90;99.90
31809;DHT22;18379;48.208;-1.518;2022-12-08T17:04:56;4.90;99.90
31809;DHT22;18379;48.208;-1.518;2022-12-08T17:09:57;4.90;99.90
31809;DHT22;18379;48.208;-1.518;2022-12-08T17:14:58;4.80;99.90
31809;DHT22;18379;48.208;-1.518;2022-12-08T17:19:59;4.80;99.90
31809;DHT22;18379;48.208;-1.518;2022-12-08T17:25:00;4.80;99.90
31809;DHT22;18379;48.208;-1.518;2022-12-08T17:30:02;4.70;99.90
31809;DHT22;18379;48.208;-1.518;2022-12-08T17:35:04;4.70;99.90
31809;DHT22;18379;48.208;-1.518;2022-12-08T17:40:05;4.70;99.90
31809;DHT22;18379;48.208;-1.518;2022-12-08T17:45:07;4.70;99.90
31809;DHT22;18379;48.208;-1.518;2022-12-08T17:50:08;4.60;99.90
31809;DHT22;18379;48.208;-1.518;2022-12-08T17:55:09;4.70;99.90
31809;DHT22;18379;48.208;-1.518;2022-12-08T18:00:10;4.70;99.90
31809;DHT22;18379;48.208;-1.518;2022-12-08T18:05:11;4.70;99.90
31809;DHT22;18379;48.208;-1.518;2022-12-08T18:10:12;4.70;99.90
31809;DHT22;18379;48.208;-1.518;2022-12-08T18:15:18;4.60;99.90
31809;DHT22;18379;48.208;-1.518;2022-12-08T18:20:20;4.50;99.90
31809;DHT22;18379;48.208;-1.518;2022-12-08T18:25:21;4.50;99.90
31809;DHT22;18379;48.208;-1.518;2022-12-08T18:30:21;4.50;99.90
31809;DHT22;18379;48.208;-1.518;2022-12-08T18:35:22;4.80;99.90
31809;DHT22;18379;48.208;-1.518;2022-12-08T18:40:23;4.90;99.90
31809;DHT22;18379;48.208;-1.518;2022-12-08T18:45:24;4.80;99.90
31809;DHT22;18379;48.208;-1.518;2022-12-08T18:50:25;4.80;99.90
31809;DHT22;18379;48.208;-1.518;2022-12-08T18:55:25;4.70;99.90
31809;DHT22;18379;48.208;-1.518;2022-12-08T19:00:26;4.70;99.90
31809;DHT22;18379;48.208;-1.518;2022-12-08T19:05:27;5.00;99.90
31809;DHT22;18379;48.208;-1.518;2022-12-08T19:10:28;5.00;99.90
31809;DHT22;18379;48.208;-1.518;2022-12-08T19:15:32;4.90;99.90
31809;DHT22;18379;48.208;-1.518;2022-12-08T19:20:33;4.80;99.90
31809;DHT22;18379;48.208;-1.518;2022-12-08T19:25:34;4.80;99.90
31809;DHT22;18379;48.208;-1.518;2022-12-08T19:30:36;4.80;99.90
31809;DHT22;18379;48.208;-1.518;2022-12-08T19:35:37;4.70;99.90
31809;DHT22;18379;48.208;-1.518;2022-12-08T19:40:43;4.70;99.90
31809;DHT22;18379;48.208;-1.518;2022-12-08T19:46:02;4.60;99.90
31809;DHT22;18379;48.208;-1.518;2022-12-08T19:51:04;4.50;99.90
31809;DHT22;18379;48.208;-1.518;2022-12-08T19:56:05;4.50;99.90
31809;DHT22;18379;48.208;-1.518;2022-12-08T20:01:06;4.50;99.90
31809;DHT22;18379;48.208;-1.518;2022-12-08T20:06:13;4.50;99.90
31809;DHT22;18379;48.208;-1.518;2022-12-08T20:11:15;4.50;99.90
31809;DHT22;18379;48.208;-1.518;2022-12-08T20:16:16;4.40;99.90
31809;DHT22;18379;48.208;-1.518;2022-12-08T20:21:16;4.40;99.90
31809;DHT22;18379;48.208;-1.518;2022-12-08T20:26:19;4.40;99.90
31809;DHT22;18379;48.208;-1.518;2022-12-08T20:31:23;4.30;99.90
31809;DHT22;18379;48.208;-1.518;2022-12-08T20:36:24;4.40;99.90
31809;DHT22;18379;48.208;-1.518;2022-12-08T20:41:25;4.40;99.90
31809;DHT22;18379;48.208;-1.518;2022-12-08T20:46:26;4.40;99.90
31809;DHT22;18379;48.208;-1.518;2022-12-08T20:51:28;4.50;99.90
31809;DHT22;18379;48.208;-1.518;2022-12-08T20:56:29;4.60;99.90
31809;DHT22;18379;48.208;-1.518;2022-12-08T21:01:33;4.50;99.90
31809;DHT22;18379;48.208;-1.518;2022-12-08T21:06:34;4.50;99.90
31809;DHT22;18379;48.208;-1.518;2022-12-08T21:11:35;4.50;99.90
31809;DHT22;18379;48.208;-1.518;2022-12-08T21:16:36;4.50;99.90
31809;DHT22;18379;48.208;-1.518;2022-12-08T21:21:37;4.60;99.90
31809;DHT22;18379;48.208;-1.518;2022-12-08T21:26:38;4.60;99.90
31809;DHT22;18379;48.208;-1.518;2022-12-08T21:31:39;4.60;99.90
31809;DHT22;18379;48.208;-1.518;2022-12-08T21:36:40;4.60;99.90
31809;DHT22;18379;48.208;-1.518;2022-12-08T21:41:41;4.50;99.90
31809;DHT22;18379;48.208;-1.518;2022-12-08T21:47:01;4.50;99.90
31809;DHT22;18379;48.208;-1.518;2022-12-08T21:52:02;4.50;99.90
31809;DHT22;18379;48.208;-1.518;2022-12-08T21:57:03;4.50;99.90
31809;DHT22;18379;48.208;-1.518;2022-12-08T22:02:10;4.50;99.90
31809;DHT22;18379;48.208;-1.518;2022-12-08T22:07:11;4.50;99.90
31809;DHT22;18379;48.208;-1.518;2022-12-08T22:12:12;4.50;99.90
31809;DHT22;18379;48.208;-1.518;2022-12-08T22:17:12;4.40;99.90
31809;DHT22;18379;48.208;-1.518;2022-12-08T22:22:13;4.50;99.90
31809;DHT22;18379;48.208;-1.518;2022-12-08T22:27:14;4.50;99.90
31809;DHT22;18379;48.208;-1.518;2022-12-08T22:32:15;4.50;99.90
31809;DHT22;18379;48.208;-1.518;2022-12-08T22:37:16;4.50;99.90
31809;DHT22;18379;48.208;-1.518;2022-12-08T22:42:16;4.50;99.90
31809;DHT22;18379;48.208;-1.518;2022-12-08T22:47:18;4.50;99.90
31809;DHT22;18379;48.208;-1.518;2022-12-08T22:52:19;4.60;99.90
31809;DHT22;18379;48.208;-1.518;2022-12-08T22:57:19;4.50;99.90
31809;DHT22;18379;48.208;-1.518;2022-12-08T23:02:20;4.60;99.90
31809;DHT22;18379;48.208;-1.518;2022-12-08T23:07:21;4.60;99.90
31809;DHT22;18379;48.208;-1.518;2022-12-08T23:12:22;4.60;99.90
31809;DHT22;18379;48.208;-1.518;2022-12-08T23:17:22;4.60;99.90
31809;DHT22;18379;48.208;-1.518;2022-12-08T23:22:24;4.60;99.90
31809;DHT22;18379;48.208;-1.518;2022-12-08T23:27:25;4.50;99.90
31809;DHT22;18379;48.208;-1.518;2022-12-08T23:32:26;4.50;99.90
31809;DHT22;18379;48.208;-1.518;2022-12-08T23:37:27;4.50;99.90
31809;DHT22;18379;48.208;-1.518;2022-12-08T23:42:29;4.50;99.90
31809;DHT22;18379;48.208;-1.518;2022-12-08T23:47:29;4.40;99.90
31809;DHT22;18379;48.208;-1.518;2022-12-08T23:52:30;4.50;99.90
31809;DHT22;18379;48.208;-1.518;2022-12-08T23:57:31;4.50;99.90
